Zametcino, Russia
Current Conditions -  °F | °C
As of 5:30 PM on Saturday 25 Oct 2014 (Local Time) from UUOO Reporting Station
Clear Clear  
Wind Chill: 19°   Ceiling: Unl
Heat Index: 25°   Visibility: 6mi
Dew Point:   Wind: 4mph
Humidity: 50%   Direction: NA
Pressure: 30.62"   Gusts: NA
Location:  53.48°N, 42.63°E
Report Text: UUOO 251430Z VRB02MPS CAVOK M04/M13 Q1037 NOSIG RMK 30090070
Loading
Personal Weather Stations






























Interactive Weather Map
Tropical Storm Tracking
New forecast layout! Learn more

10-Day Weather Forecast

Advertisements
Track Severe Weather on mobile